Time;durP1;ratioP1;P1;durP2;ratioP2;P2;SDS_P1;SDS_P2;PMS_P1;PMS_P2;Temp;Humidity;BMP_temperature;BMP_pressure;BME280_temperature;BME280_humidity;BME280_pressure;Samples;Min_cycle;Max_cycle;Signal;HPM_P1;HPM_P2
2022/08/06 00:02:00;;;;;;;9.30;2.95;;;;;;;;;;4937000;29;20091;-96
2022/08/06 00:04:26;;;;;;;5.70;3.75;;;;;;;;;;4937204;29;20016;-96
2022/08/06 00:06:52;;;;;;;4.63;2.95;;;;;;;;;;4937374;29;20034;-95
2022/08/06 00:09:18;;;;;;;4.32;2.78;;;;;;;;;;4937358;29;20024;-96
2022/08/06 00:11:44;;;;;;;4.90;3.00;;;;;;;;;;4937055;29;20561;-95
2022/08/06 00:14:10;;;;;;;3.50;2.35;;;;;;;;;;4932453;29;20047;-95
2022/08/06 00:16:36;;;;;;;5.97;2.65;;;;;;;;;;4943900;29;20086;-96
2022/08/06 00:19:02;;;;;;;9.13;2.58;;;;;;;;;;4937040;29;20059;-94
2022/08/06 00:21:28;;;;;;;3.75;2.15;;;;;;;;;;4937449;29;20062;-95
2022/08/06 00:23:54;;;;;;;4.35;2.70;;;;;;;;;;4937305;29;20028;-96
2022/08/06 00:26:20;;;;;;;5.93;3.55;;;;;;;;;;4951702;29;20115;-95
2022/08/06 00:28:46;;;;;;;3.17;2.17;;;;;;;;;;4936845;29;20509;-94
2022/08/06 00:31:12;;;;;;;5.15;2.65;;;;;;;;;;4951619;28;20080;-94
2022/08/06 00:33:42;;;;;;;3.30;2.08;;;;;;;;;;4936014;29;20495;-95
2022/08/06 00:36:09;;;;;;;4.55;2.60;;;;;;;;;;4936456;29;20041;-94
2022/08/06 00:38:35;;;;;;;4.55;3.20;;;;;;;;;;4936850;28;20039;-96
2022/08/06 00:41:01;;;;;;;9.82;4.25;;;;;;;;;;4951380;29;20062;-94
2022/08/06 00:43:27;;;;;;;6.65;3.35;;;;;;;;;;4950937;29;20048;-94
2022/08/06 00:45:53;;;;;;;7.75;4.82;;;;;;;;;;4951621;29;20047;-95
2022/08/06 00:48:19;;;;;;;10.02;3.97;;;;;;;;;;4935917;29;20019;-94
2022/08/06 00:50:45;;;;;;;6.50;4.40;;;;;;;;;;4936618;29;20075;-95
2022/08/06 00:53:11;;;;;;;6.35;3.30;;;;;;;;;;4936981;29;20035;-96
2022/08/06 00:55:37;;;;;;;3.63;2.30;;;;;;;;;;4946257;29;20051;-95
2022/08/06 00:58:04;;;;;;;8.80;2.17;;;;;;;;;;4936370;29;20110;-95
2022/08/06 01:00:30;;;;;;;6.10;2.70;;;;;;;;;;4944907;29;20083;-96
2022/08/06 01:02:56;;;;;;;4.00;2.33;;;;;;;;;;4935709;29;20024;-95
2022/08/06 01:05:22;;;;;;;2.63;1.90;;;;;;;;;;4950976;29;20028;-95
2022/08/06 01:07:48;;;;;;;7.95;2.30;;;;;;;;;;4936247;29;20047;-94
2022/08/06 01:10:14;;;;;;;3.55;2.35;;;;;;;;;;4935981;29;20487;-95
2022/08/06 01:12:40;;;;;;;3.55;2.22;;;;;;;;;;4935756;29;20158;-95
2022/08/06 01:15:06;;;;;;;12.63;2.10;;;;;;;;;;4944519;29;20101;-95
2022/08/06 01:17:38;;;;;;;4.38;2.05;;;;;;;;;;4936102;29;20023;-96
2022/08/06 01:20:23;;;;;;;5.03;2.08;;;22.60;79.40;;;;;;4939186;29;20048;-95
2022/08/06 01:22:49;;;;;;;3.92;2.08;;;;;;;;;;4935527;29;20479;-94
2022/08/06 01:25:27;;;;;;;6.43;1.75;;;;;;;;;;4950855;28;20023;-95
2022/08/06 01:27:58;;;;;;;7.97;3.10;;;;;;;;;;4938123;29;20050;-93
2022/08/06 01:30:32;;;;;;;11.75;3.17;;;22.00;82.10;;;;;;4936068;29;20129;-96
2022/08/06 01:33:03;;;;;;;3.90;2.38;;;;;;;;;;4936372;29;20031;-95
2022/08/06 01:35:33;;;;;;;3.92;2.88;;;22.70;79.90;;;;;;4942376;29;20028;-95
2022/08/06 01:38:11;;;;;;;4.60;2.35;;;;;;;;;;4936153;29;20453;-95
2022/08/06 01:40:37;;;;;;;;;;;23.10;77.60;;;;;;4951075;29;20048;-95
2022/08/06 01:43:07;;;;;;;4.75;2.45;;;22.90;76.40;;;;;;4950754;29;19911;-95
2022/08/06 01:45:34;;;;;;;10.02;2.58;;;22.90;77.00;;;;;;4950648;28;20038;-95
2022/08/06 01:48:06;;;;;;;3.67;1.73;;;22.40;78.30;;;;;;4939807;29;20027;-95
2022/08/06 01:50:38;;;;;;;6.20;2.42;;;;;;;;;;4955053;29;20486;-94
2022/08/06 01:53:06;;;;;;;2.88;2.47;;;;;;;;;;4939681;29;20044;-95
2022/08/06 01:55:36;;;;;;;3.75;2.38;;;;;;;;;;4954716;29;20095;-95
2022/08/06 01:58:03;;;;;;;8.15;3.33;;;;;;;;;;4952614;29;20122;-95
2022/08/06 02:00:30;;;;;;;4.75;2.78;;;22.10;82.20;;;;;;4938998;29;20031;-95
2022/08/06 02:03:03;;;;;;;4.82;3.40;;;22.10;81.50;;;;;;4938199;29;20062;-94
2022/08/06 02:05:29;;;;;;;6.85;3.47;;;;;;;;;;4954166;29;20020;-94
2022/08/06 02:07:56;;;;;;;7.82;3.45;;;;;;;;;;4939883;29;20055;-95
2022/08/06 02:10:23;;;;;;;7.30;3.85;;;;;;;;;;4939427;29;20027;-95
2022/08/06 02:12:49;;;;;;;7.00;2.90;;;;;;;;;;4939486;29;20050;-94
2022/08/06 02:15:21;;;;;;;4.00;1.73;;;;;;;;;;4939504;29;20075;-94
2022/08/06 02:17:49;;;;;;;6.70;2.85;;;;;;;;;;4939384;29;20019;-95
2022/08/06 02:20:16;;;;;;;2.20;1.40;;;;;;;;;;4953798;29;20036;-96
2022/08/06 02:22:44;;;;;;;5.97;2.08;;;;;;;;;;4939139;29;20024;-95
2022/08/06 02:25:12;;;;;;;4.32;2.63;;;;;;;;;;4950841;29;20035;-96
2022/08/06 02:27:39;;;;;;;;;;;22.00;82.60;;;;;;4938314;29;20637;-95
2022/08/06 02:30:06;;;;;;;5.30;2.83;;;;;;;;;;4939045;29;20366;-95
2022/08/06 02:32:32;;;;;;;8.70;3.83;;;;;;;;;;4953825;29;20044;-95
2022/08/06 02:34:58;;;;;;;6.68;2.95;;;;;;;;;;4939113;29;20032;-95
2022/08/06 02:37:33;;;;;;;6.93;2.95;;;21.60;84.40;;;;;;4939289;29;20036;-94
2022/08/06 02:40:10;;;;;;;4.55;2.35;;;;;;;;;;4953870;29;20078;-95
2022/08/06 02:42:42;;;;;;;5.53;2.97;;;22.30;80.90;;;;;;4937814;29;20119;-94
2022/08/06 02:45:09;;;;;;;3.50;2.17;;;;;;;;;;4938908;29;20036;-94
2022/08/06 02:47:36;;;;;;;2.72;1.73;;;;;;;;;;4939325;29;20031;-96
2022/08/06 02:50:04;;;;;;;3.58;2.10;;;;;;;;;;4953739;29;20027;-96
2022/08/06 02:52:33;;;;;;;2.60;2.03;;;;;;;;;;4938492;29;20024;-95
2022/08/06 02:55:02;;;;;;;7.32;2.15;;;;;;;;;;4948175;29;20392;-95
2022/08/06 02:57:36;;;;;;;3.85;2.92;;;22.20;80.80;;;;;;4938164;29;20016;-95
2022/08/06 03:00:05;;;;;;;4.00;2.95;;;;;;;;;;4944004;29;20310;-96
2022/08/06 03:02:32;;;;;;;4.38;2.40;;;;;;;;;;4938998;29;21410;-95
2022/08/06 03:05:00;;;;;;;8.02;2.67;;;;;;;;;;4953554;29;20042;-95
2022/08/06 03:07:28;;;;;;;6.43;2.88;;;;;;;;;;4938098;29;20039;-94
2022/08/06 03:09:55;;;;;;;6.07;3.70;;;;;;;;;;4938201;29;20518;-95
2022/08/06 03:12:21;;;;;;;;;;;21.80;81.80;;;;;;4939047;29;20035;-95
2022/08/06 03:14:47;;;;;;;5.10;3.17;;;;;;;;;;4937082;29;19915;-95
2022/08/06 03:17:15;;;;;;;6.50;3.70;;;;;;;;;;4938529;29;20031;-96
2022/08/06 03:19:42;;;;;;;;;;;22.10;81.70;;;;;;4938182;29;20039;-94
2022/08/06 03:22:09;;;;;;;5.15;3.47;;;;;;;;;;4938247;29;19906;-96
2022/08/06 03:24:37;;;;;;;5.10;3.33;;;21.80;81.30;;;;;;4938052;29;20038;-95
2022/08/06 03:27:04;;;;;;;5.43;3.45;;;21.30;83.50;;;;;;4938186;29;20031;-95
2022/08/06 03:29:30;;;;;;;5.68;3.35;;;;;;;;;;4940105;29;20567;-94
2022/08/06 03:31:56;;;;;;;4.70;2.72;;;;;;;;;;4930228;29;20031;-95
2022/08/06 03:34:23;;;;;;;3.72;2.13;;;;;;;;;;4952938;29;20027;-94
2022/08/06 03:36:49;;;;;;;5.07;2.30;;;;;;;;;;4937644;29;20039;-94
2022/08/06 03:39:16;;;;;;;9.27;1.60;;;;;;;;;;4937676;29;20487;-93
2022/08/06 03:41:45;;;;;;;4.88;2.35;;;21.60;79.90;;;;;;4937960;29;20031;-95
2022/08/06 03:44:11;;;;;;;4.70;1.98;;;;;;;;;;4937710;29;20570;-95
2022/08/06 03:46:55;;;;;;;4.07;2.30;;;21.10;81.40;;;;;;4952579;29;20119;-96
2022/08/06 03:49:28;;;;;;;3.65;2.28;;;;;;;;;;4952748;29;20035;-96
2022/08/06 03:51:55;;;;;;;4.53;2.53;;;;;;;;;;4952469;29;20035;-96
2022/08/06 03:54:30;;;;;;;5.05;2.33;;;;;;;;;;4937477;29;20031;-93
2022/08/06 03:57:05;;;;;;;5.85;2.70;;;22.10;77.00;;;;;;4937312;29;20028;-94
2022/08/06 03:59:31;;;;;;;3.08;2.10;;;;;;;;;;4937054;29;20127;-94
2022/08/06 04:02:00;;;;;;;3.55;2.22;;;22.40;75.60;;;;;;4937236;29;20810;-95
2022/08/06 04:04:26;;;;;;;4.05;2.17;;;;;;;;;;4937016;29;20507;-96
2022/08/06 04:06:57;;;;;;;3.37;1.63;;;22.00;77.90;;;;;;4952387;29;20024;-94
2022/08/06 04:09:24;;;;;;;2.97;2.03;;;;;;;;;;4936964;29;20039;-94
2022/08/06 04:11:50;;;;;;;5.90;2.60;;;;;;;;;;4936838;29;20051;-96
2022/08/06 04:14:16;;;;;;;8.80;2.47;;;;;;;;;;4937186;29;20066;-95
2022/08/06 04:16:42;;;;;;;5.88;2.72;;;;;;;;;;4951965;29;20102;-96
2022/08/06 04:19:10;;;;;;;5.03;2.88;;;21.50;82.30;;;;;;4951803;29;20099;-95
2022/08/06 04:21:36;;;;;;;15.65;3.25;;;;;;;;;;4937185;29;20027;-96
2022/08/06 04:24:03;;;;;;;7.20;3.00;;;;;;;;;;4940999;29;20032;-94
2022/08/06 04:26:30;;;;;;;4.93;3.22;;;;;;;;;;4940346;29;20024;-94
2022/08/06 04:28:57;;;;;;;7.97;3.28;;;;;;;;;;4951414;29;20079;-96
2022/08/06 04:31:24;;;;;;;4.43;2.60;;;;;;;;;;4936925;29;20118;-94
2022/08/06 04:33:52;;;;;;;4.40;2.83;;;;;;;;;;4936903;29;20023;-94
2022/08/06 04:36:18;;;;;;;5.68;2.97;;;;;;;;;;4936159;29;20050;-96
2022/08/06 04:38:45;;;;;;;4.15;2.53;;;20.90;85.70;;;;;;4936794;29;20023;-95
2022/08/06 04:41:11;;;;;;;7.57;2.33;;;;;;;;;;4938698;29;20034;-96
2022/08/06 04:43:37;;;;;;;3.67;2.70;;;;;;;;;;4922706;29;20123;-95
2022/08/06 04:46:03;;;;;;;3.47;2.22;;;;;;;;;;4943358;29;20078;-95
2022/08/06 04:48:30;;;;;;;5.13;1.85;;;;;;;;;;4945963;29;20455;-95
2022/08/06 04:50:56;;;;;;;5.38;2.53;;;;;;;;;;4951002;29;20510;-95
2022/08/06 04:53:22;;;;;;;4.72;2.55;;;;;;;;;;4936091;29;20059;-94
2022/08/06 04:55:48;;;;;;;4.45;2.63;;;;;;;;;;4936607;29;20020;-95
2022/08/06 04:58:16;;;;;;;6.53;2.47;;;;;;;;;;4951114;29;20062;-94
2022/08/06 05:00:43;;;;;;;8.07;3.35;;;;;;;;;;4936560;29;20057;-95
2022/08/06 05:03:09;;;;;;;6.10;2.90;;;;;;;;;;4936065;29;20038;-93
2022/08/06 05:06:08;;;;;;;10.32;2.28;;;21.70;82.80;;;;;;4935889;29;20023;-95
2022/08/06 05:08:39;;;;;;;8.23;2.58;;;21.50;83.30;;;;;;4950364;29;20058;-93
2022/08/06 05:11:20;;;;;;;5.10;3.33;;;21.30;85.70;;;;;;4936218;29;20032;-94
2022/08/06 05:13:53;;;;;;;6.95;3.40;;;21.70;84.40;;;;;;4950667;29;20020;-95
2022/08/06 05:16:20;;;;;;;4.72;2.88;;;;;;;;;;4935778;29;20063;-95
2022/08/06 05:18:57;;;;;;;4.78;3.08;;;21.70;83.10;;;;;;4947755;29;20028;-95
2022/08/06 05:21:28;;;;;;;;;;;21.40;86.30;;;;;;4935976;29;20027;-94
2022/08/06 05:23:55;;;;;;;4.28;2.60;;;21.50;83.60;;;;;;4947821;29;19907;-95
2022/08/06 05:26:21;;;;;;;6.00;3.00;;;21.00;86.20;;;;;;4937951;29;20031;-94
2022/08/06 05:28:48;;;;;;;9.73;4.15;;;;;;;;;;4936338;29;20086;-95
2022/08/06 05:31:14;;;;;;;5.40;3.05;;;;;;;;;;4935500;29;20637;-94
2022/08/06 05:33:40;;;;;;;4.32;2.88;;;;;;;;;;4935999;29;20032;-96
2022/08/06 05:36:08;;;;;;;7.15;3.92;;;21.50;88.30;;;;;;4935753;29;20027;-94
2022/08/06 05:38:36;;;;;;;8.57;4.32;;;21.70;87.10;;;;;;4941032;29;20052;-95
2022/08/06 05:41:07;;;;;;;5.30;3.45;;;21.40;86.30;;;;;;4935685;29;20028;-95
2022/08/06 05:43:33;;;;;;;8.63;4.57;;;;;;;;;;4934563;29;20024;-94
2022/08/06 05:46:06;;;;;;;5.28;3.55;;;21.60;86.80;;;;;;4938976;29;20475;-95
2022/08/06 05:48:37;;;;;;;8.55;4.35;;;22.00;85.60;;;;;;4933475;29;20032;-96
2022/08/06 05:51:10;;;;;;;8.13;3.97;;;22.30;85.00;;;;;;4925230;29;20035;-94
2022/08/06 05:53:47;;;;;;;7.35;3.85;;;22.40;84.30;;;;;;4934988;29;20016;-95
2022/08/06 05:56:17;;;;;;;8.85;4.32;;;22.60;83.90;;;;;;4934739;29;20032;-95
2022/08/06 05:58:47;;;;;;;8.23;4.85;;;;;;;;;;4935535;29;20039;-95
2022/08/06 06:01:14;;;;;;;7.95;3.72;;;22.40;85.30;;;;;;4935575;29;20020;-95
2022/08/06 06:03:41;;;;;;;6.75;3.85;;;22.50;84.00;;;;;;4935756;29;20106;-95
2022/08/06 06:06:08;;;;;;;8.98;5.03;;;22.80;83.80;;;;;;4934502;29;20031;-95
2022/08/06 06:08:36;;;;;;;8.32;4.75;;;23.10;82.50;;;;;;4934141;29;20046;-94
2022/08/06 06:11:03;;;;;;;9.13;4.40;;;22.90;82.80;;;;;;4935364;29;20075;-93
2022/08/06 06:13:30;;;;;;;8.57;4.70;;;;;;;;;;4935471;29;20032;-94
2022/08/06 06:16:16;;;;;;;10.07;3.67;;;;;;;;;;4950376;29;20561;-95
2022/08/06 06:18:54;;;;;;;7.30;2.90;;;;;;;;;;4935743;29;20039;-96
2022/08/06 06:21:56;;;;;;;3.65;2.38;;;23.10;74.80;;;;;;4936129;29;20028;-96
2022/08/06 06:24:36;;;;;;;3.53;1.77;;;23.00;73.60;;;;;;4935778;29;20111;-95
2022/08/06 06:27:15;;;;;;;3.17;1.67;;;23.30;70.80;;;;;;4935409;29;20036;-96
2022/08/06 06:29:58;;;;;;;4.05;2.47;;;23.30;69.70;;;;;;4934847;29;20044;-96
2022/08/06 06:32:30;;;;;;;5.80;2.20;;;;;;;;;;4947666;28;20490;-96
2022/08/06 06:35:05;;;;;;;2.80;1.67;;;23.20;70.70;;;;;;4953305;29;20016;-95
2022/08/06 06:37:34;;;;;;;3.60;2.22;;;;;;;;;;4939081;29;20039;-95
2022/08/06 06:40:00;;;;;;;4.95;2.20;;;;;;;;;;4953610;29;20067;-95
2022/08/06 06:42:33;;;;;;;2.75;2.10;;;23.90;71.40;;;;;;4938549;29;20024;-94
2022/08/06 06:45:02;;;;;;;8.98;2.97;;;;;;;;;;4938894;29;20035;-95
2022/08/06 06:47:45;;;;;;;2.13;1.70;;;24.10;86.40;;;;;;4938836;29;20016;-95
2022/08/06 06:50:18;;;;;;;8.20;2.05;;;23.90;69.50;;;;;;4953628;29;20046;-95
2022/08/06 06:52:48;;;;;;;2.28;1.60;;;24.20;68.60;;;;;;4942102;29;21428;-95
2022/08/06 06:55:24;;;;;;;4.05;1.80;;;;;;;;;;4938208;29;20035;-96
2022/08/06 06:57:55;;;;;;;14.93;2.75;;;;;;;;;;4938353;29;20024;-95
2022/08/06 07:00:21;;;;;;;1.80;1.52;;;;;;;;;;4937903;29;20031;-94
2022/08/06 07:02:48;;;;;;;4.07;2.17;;;26.00;63.00;;;;;;4939395;29;20074;-95
2022/08/06 07:05:14;;;;;;;;;;;;;;;;;;4931824;29;20040;-95
2022/08/06 07:07:40;;;;;;;2.88;2.42;;;;;;;;;;4933593;29;19907;-96
2022/08/06 07:10:10;;;;;;;3.10;2.80;;;27.00;57.70;;;;;;4936361;29;20570;-94
2022/08/06 07:12:37;;;;;;;3.05;2.78;;;28.00;56.30;;;;;;4928476;29;20036;-93
2022/08/06 07:15:04;;;;;;;2.85;2.22;;;;;;;;;;4937051;29;20311;-95
2022/08/06 07:17:32;;;;;;;2.40;2.13;;;30.30;50.50;;;;;;4940639;28;20031;-95
2022/08/06 07:20:01;;;;;;;2.67;2.30;;;31.20;48.60;;;;;;4952888;28;20039;-94
2022/08/06 07:22:27;;;;;;;2.45;1.83;;;;;;;;;;4937841;29;20016;-94
2022/08/06 07:24:59;;;;;;;5.03;2.78;;;32.80;44.60;;;;;;4937850;29;20187;-93
2022/08/06 07:27:32;;;;;;;2.60;2.33;;;32.40;45.80;;;;;;4937711;29;20027;-93
2022/08/06 07:29:59;;;;;;;2.25;2.00;;;32.20;44.30;;;;;;4937530;29;20043;-95
2022/08/06 07:32:26;;;;;;;5.68;2.42;;;;;;;;;;4952256;29;20024;-95
2022/08/06 07:34:52;;;;;;;;;;;33.60;41.50;;;;;;4937875;29;20114;-94
2022/08/06 07:37:21;;;;;;;3.50;2.88;;;33.50;44.00;;;;;;4937227;29;19998;-93
2022/08/06 07:39:47;;;;;;;3.30;1.95;;;;;;;;;;4937756;29;20035;-95
2022/08/06 07:42:15;;;;;;;1.98;1.77;;;34.60;41.60;;;;;;4937371;29;20042;-94
2022/08/06 07:44:49;;;;;;;1.77;1.60;;;35.20;40.00;;;;;;4936974;29;20058;-94
2022/08/06 07:47:19;;;;;;;2.35;1.92;;;34.90;39.00;;;;;;4937427;29;20028;-95
2022/08/06 07:49:46;;;;;;;2.28;2.00;;;;;;;;;;4952339;28;20138;-95
2022/08/06 07:52:14;;;;;;;;;;;33.60;41.50;;;;;;4937521;29;20131;-94
2022/08/06 07:54:41;;;;;;;2.63;1.88;;;;;;;;;;4937018;29;19938;-96
2022/08/06 07:57:07;;;;;;;;;;;36.00;38.60;;;;;;4937431;29;20031;-95
2022/08/06 07:59:33;;;;;;;4.97;2.05;;;36.30;38.00;;;;;;4951817;28;19907;-94
2022/08/06 08:02:01;;;;;;;4.80;2.08;;;36.50;38.10;;;;;;4936984;29;20037;-94
2022/08/06 08:07:13;;;;;;;4.43;1.83;;;;;;;;;;4926193;29;20035;-94
2022/08/06 08:09:38;;;;;;;;;;;37.90;35.00;;;;;;4936674;29;20130;-94
2022/08/06 08:12:06;;;;;;;;;;;34.90;38.20;;;;;;4937115;29;19938;-95
2022/08/06 08:14:32;;;;;;;7.68;2.25;;;;;;;;;;4936853;29;20393;-96
2022/08/06 08:16:58;;;;;;;2.40;1.13;;;;;;;;;;4951697;28;20050;-93
2022/08/06 08:19:26;;;;;;;3.05;1.75;;;;;;;;;;4937105;29;20043;-93
2022/08/06 08:21:52;;;;;;;2.58;1.65;;;;;;;;;;4936807;29;20120;-95
2022/08/06 08:24:18;;;;;;;3.15;1.35;;;;;;;;;;4935469;29;20035;-94
2022/08/06 08:26:44;;;;;;;3.42;1.15;;;;;;;;;;4951769;29;20031;-95
2022/08/06 08:29:11;;;;;;;2.55;1.25;;;;;;;;;;4950810;29;20042;-95
2022/08/06 08:31:37;;;;;;;2.22;1.25;;;;;;;;;;4936449;29;20035;-94
2022/08/06 08:34:03;;;;;;;4.15;2.42;;;;;;;;;;4934786;29;20106;-94
2022/08/06 08:36:29;;;;;;;3.38;1.80;;;;;;;;;;4949691;29;20116;-94
2022/08/06 08:38:57;;;;;;;4.75;1.88;;;;;;;;;;4934253;29;20490;-94
2022/08/06 08:41:26;;;;;;;2.03;1.15;;;36.30;37.40;;;;;;4934178;29;20036;-95
2022/08/06 08:44:06;;;;;;;3.42;1.75;;;36.10;37.90;;;;;;4934483;29;20031;-94
2022/08/06 08:46:42;;;;;;;4.82;1.75;;;36.10;36.50;;;;;;4936265;29;20031;-96
2022/08/06 08:49:18;;;;;;;4.68;2.25;;;37.20;37.20;;;;;;4950693;29;20036;-93
2022/08/06 08:51:45;;;;;;;5.57;2.17;;;36.80;36.70;;;;;;4935046;29;20572;-95
2022/08/06 08:54:29;;;;;;;6.63;2.40;;;36.50;38.20;;;;;;5105613;27;20441;-93
2022/08/06 08:56:55;;;;;;;3.58;2.30;;;36.80;39.10;;;;;;5109641;28;20024;-93
2022/08/06 08:59:21;;;;;;;3.97;2.28;;;;;;;;;;5104951;28;20052;-96
2022/08/06 09:01:49;;;;;;;4.53;3.28;;;;;;;;;;5110835;28;20031;-96
2022/08/06 09:04:15;;;;;;;8.23;3.47;;;;;;;;;;5109748;28;20031;-95
2022/08/06 09:06:41;;;;;;;14.40;3.13;;;;;;;;;;5101033;28;20401;-93
2022/08/06 09:09:07;;;;;;;3.72;2.63;;;;;;;;;;5101421;28;20129;-93
2022/08/06 09:11:35;;;;;;;3.65;2.92;;;36.60;40.00;;;;;;5110283;28;20034;-94
2022/08/06 09:14:05;;;;;;;4.45;2.85;;;36.50;39.10;;;;;;5109689;28;20127;-94
2022/08/06 09:16:33;;;;;;;9.98;3.03;;;36.60;39.30;;;;;;5109634;28;20024;-94
2022/08/06 09:18:59;;;;;;;4.47;3.35;;;;;;;;;;5101026;28;20020;-93
2022/08/06 09:21:26;;;;;;;4.25;2.50;;;;;;;;;;5110410;28;20092;-94
2022/08/06 09:23:52;;;;;;;9.43;3.13;;;;;;;;;;5110361;28;20149;-94
2022/08/06 09:26:18;;;;;;;7.63;3.45;;;;;;;;;;5103650;28;20103;-93
2022/08/06 09:28:44;;;;;;;5.00;3.35;;;;;;;;;;5102745;28;20053;-94
2022/08/06 09:31:10;;;;;;;7.85;2.58;;;;;;;;;;5110200;28;20024;-93
2022/08/06 09:33:38;;;;;;;5.82;2.65;;;;;;;;;;5109912;28;20040;-94
2022/08/06 09:36:06;;;;;;;3.80;3.13;;;;;;;;;;5110094;28;20049;-94
2022/08/06 09:38:32;;;;;;;10.05;2.88;;;;;;;;;;5109937;28;20019;-94
2022/08/06 09:41:09;;;;;;;3.80;2.15;;;38.90;36.10;;;;;;5108675;28;20119;-94
2022/08/06 09:43:35;;;;;;;3.63;2.20;;;38.60;36.30;;;;;;5091554;28;20119;-94
2022/08/06 09:46:01;;;;;;;;;;;;;;;;;;5109312;28;20020;-94
2022/08/06 09:48:27;;;;;;;6.93;2.60;;;;;;;;;;5110357;28;19904;-95
2022/08/06 09:50:53;;;;;;;5.63;2.53;;;;;;;;;;5108666;28;20111;-94
2022/08/06 09:53:21;;;;;;;5.60;2.67;;;;;;;;;;5109552;28;20400;-94
2022/08/06 09:55:48;;;;;;;4.85;2.88;;;;;;;;;;5107932;28;20032;-94
2022/08/06 09:58:14;;;;;;;7.20;3.13;;;;;;;;;;5108283;28;20126;-93
2022/08/06 10:00:40;;;;;;;2.85;2.53;;;;;;;;;;5104985;28;20543;-93
2022/08/06 10:03:08;;;;;;;2.95;2.20;;;40.30;36.10;;;;;;5109264;28;20404;-95
2022/08/06 10:05:34;;;;;;;3.35;2.38;;;;;;;;;;5077894;28;20023;-93
2022/08/06 10:08:09;;;;;;;4.10;2.53;;;39.90;34.10;;;;;;5090593;28;20154;-94
2022/08/06 10:10:42;;;;;;;2.55;1.90;;;40.80;34.00;;;;;;5094068;28;20024;-95
2022/08/06 10:13:12;;;;;;;2.30;1.50;;;40.80;32.20;;;;;;5075705;28;20044;-94
2022/08/06 10:15:38;;;;;;;3.72;1.35;;;;;;;;;;5075850;28;20016;-95
2022/08/06 10:18:04;;;;;;;1.90;1.20;;;;;;;;;;5093742;28;20024;-95
2022/08/06 10:20:30;;;;;;;2.35;1.20;;;;;;;;;;5094385;28;20031;-94
2022/08/06 10:23:00;;;;;;;2.78;1.88;;;;;;;;;;5095482;28;20027;-93
2022/08/06 10:25:29;;;;;;;2.88;1.60;;;;;;;;;;5095986;28;20400;-94
2022/08/06 10:27:56;;;;;;;2.08;1.50;;;;;;;;;;5095870;28;20044;-94
2022/08/06 10:30:21;;;;;;;;;;;40.00;33.20;;;;;;5096092;28;20024;-94
2022/08/06 10:32:55;;;;;;;4.68;1.83;;;;;;;;;;5093770;28;19908;-94
2022/08/06 10:35:23;;;;;;;3.60;1.67;;;40.60;33.80;;;;;;5081240;28;20120;-95
2022/08/06 10:37:56;;;;;;;7.00;1.20;;;40.90;32.80;;;;;;5095007;28;20028;-94
2022/08/06 10:40:23;;;;;;;5.40;1.23;;;40.00;31.90;;;;;;5094622;28;20028;-95
2022/08/06 10:42:50;;;;;;;3.70;1.60;;;;;;;;;;5083149;28;20031;-95
2022/08/06 10:45:15;;;;;;;;;;;39.90;33.90;;;;;;5094502;28;20023;-93
2022/08/06 10:47:43;;;;;;;4.03;1.77;;;;;;;;;;5095479;28;19956;-95
2022/08/06 10:50:10;;;;;;;5.05;2.13;;;;;;;;;;5081498;28;20081;-94
2022/08/06 10:52:36;;;;;;;3.42;2.08;;;;;;;;;;5094565;28;20056;-94
2022/08/06 10:55:04;;;;;;;7.05;2.72;;;;;;;;;;5093572;28;20399;-96
2022/08/06 10:57:32;;;;;;;3.25;1.73;;;;;;;;;;5095098;28;20020;-93
2022/08/06 10:59:59;;;;;;;4.75;1.95;;;;;;;;;;5095094;28;20054;-92
2022/08/06 11:03:02;;;;;;;2.25;1.67;;;34.20;38.00;;;;;;5094797;28;20031;-95
2022/08/06 11:05:30;;;;;;;3.00;1.90;;;;;;;;;;5092326;28;20020;-94
2022/08/06 11:08:16;;;;;;;2.42;1.33;;;35.00;38.50;;;;;;5094844;28;20023;-93
2022/08/06 11:10:45;;;;;;;5.95;1.20;;;;;;;;;;5085176;28;20028;-95
2022/08/06 11:13:23;;;;;;;3.83;1.40;;;;;;;;;;5079713;28;20449;-95
2022/08/06 11:15:50;;;;;;;4.78;1.73;;;35.80;37.70;;;;;;5092680;28;20127;-96
2022/08/06 11:18:16;;;;;;;1.95;1.65;;;;;;;;;;5093267;28;20384;-95
2022/08/06 11:20:47;;;;;;;4.35;1.63;;;35.30;37.90;;;;;;5094578;28;20028;-94
2022/08/06 11:23:13;;;;;;;3.47;1.65;;;;;;;;;;5081141;28;20020;-94
2022/08/06 11:25:42;;;;;;;5.57;1.40;;;;;;;;;;5081511;28;20060;-94
2022/08/06 11:28:11;;;;;;;2.38;1.33;;;33.20;39.50;;;;;;5091510;28;20020;-94
2022/08/06 11:30:43;;;;;;;5.65;1.67;;;;;;;;;;5093520;28;20032;-96
2022/08/06 11:33:10;;;;;;;3.63;1.42;;;32.80;41.70;;;;;;5093271;28;20049;-95
2022/08/06 11:35:36;;;;;;;3.47;1.63;;;;;;;;;;5093931;28;20035;-94
2022/08/06 11:38:07;;;;;;;4.83;2.37;;;32.90;40.80;;;;;;5093024;28;20024;-95
2022/08/06 11:41:06;;;;;;;1.83;1.38;;;32.90;58.30;;;;;;5093698;28;20035;-94
2022/08/06 11:43:48;;;;;;;2.40;1.77;;;;;;;;;;5092749;28;20539;-95
2022/08/06 11:46:37;;;;;;;8.23;2.33;;;32.90;41.20;;;;;;5090602;28;20017;-95
2022/08/06 11:49:03;;;;;;;2.50;1.60;;;;;;;;;;5092124;28;20016;-94
2022/08/06 11:51:50;;;;;;;2.20;1.37;;;32.40;41.30;;;;;;5093724;28;20024;-93
2022/08/06 11:54:16;;;;;;;3.35;1.20;;;;;;;;;;5082534;28;20313;-95
2022/08/06 11:57:07;;;;;;;1.60;1.27;;;32.30;41.50;;;;;;5092298;28;20024;-95
2022/08/06 11:59:37;;;;;;;5.63;1.60;;;32.10;41.80;;;;;;5086324;28;20028;-94
2022/08/06 12:02:06;;;;;;;2.03;1.50;;;32.30;42.90;;;;;;5088126;28;20020;-95
2022/08/06 12:04:32;;;;;;;9.38;2.03;;;;;;;;;;5081866;28;20028;-94
2022/08/06 12:07:22;;;;;;;1.60;1.30;;;32.60;59.40;;;;;;5092407;28;20024;-94
2022/08/06 12:10:13;;;;;;;3.83;1.77;;;33.00;42.00;;;;;;5093975;28;20012;-95
2022/08/06 12:12:39;;;;;;;2.97;1.67;;;;;;;;;;5084108;28;20043;-94
2022/08/06 12:15:20;;;;;;;2.60;1.55;;;;;;;;;;5093468;28;20044;-95
2022/08/06 12:17:55;;;;;;;2.67;1.85;;;;;;;;;;5093193;28;20059;-95
2022/08/06 12:20:31;;;;;;;3.10;1.50;;;;;;;;;;5093294;28;20103;-95
2022/08/06 12:22:58;;;;;;;3.13;1.50;;;32.60;41.70;;;;;;5079562;28;20024;-95
2022/08/06 12:25:30;;;;;;;2.67;1.20;;;;;;;;;;5092199;28;20020;-95
2022/08/06 12:27:56;;;;;;;3.72;1.67;;;32.20;42.00;;;;;;5091254;28;20012;-94
2022/08/06 12:30:22;;;;;;;6.57;1.55;;;;;;;;;;5093365;28;20395;-95
2022/08/06 12:32:48;;;;;;;2.33;1.33;;;;;;;;;;5091736;28;20032;-94
2022/08/06 12:35:14;;;;;;;1.90;1.13;;;;;;;;;;5091692;28;20032;-96
2022/08/06 12:37:45;;;;;;;2.47;1.10;;;32.00;41.90;;;;;;5074998;28;20103;-95
2022/08/06 12:40:28;;;;;;;5.07;1.52;;;32.20;41.90;;;;;;5084714;28;20633;-96
2022/08/06 12:42:54;;;;;;;4.38;1.23;;;;;;;;;;5085504;28;20028;-92
2022/08/06 12:45:24;;;;;;;4.47;2.77;;;32.70;40.80;;;;;;5088953;28;20081;-94
2022/08/06 12:48:12;;;;;;;2.20;0.98;;;33.00;40.80;;;;;;5083752;28;20168;-94
2022/08/06 12:50:43;;;;;;;3.40;1.55;;;32.90;40.30;;;;;;5090475;28;20032;-94
2022/08/06 12:53:10;;;;;;;4.68;1.23;;;32.60;40.70;;;;;;5092580;28;20177;-95
2022/08/06 12:55:47;;;;;;;4.82;1.55;;;32.20;40.90;;;;;;5086709;28;20186;-93
2022/08/06 12:58:19;;;;;;;2.72;1.45;;;32.00;41.20;;;;;;5079151;28;20078;-94
2022/08/06 13:00:50;;;;;;;3.97;1.70;;;;;;;;;;5083679;28;20105;-95
2022/08/06 13:03:19;;;;;;;2.25;1.63;;;32.20;42.60;;;;;;5075731;28;20024;-94
2022/08/06 13:05:45;;;;;;;3.03;1.58;;;;;;;;;;5080914;28;20646;-94
2022/08/06 13:08:12;;;;;;;3.77;1.60;;;32.20;42.10;;;;;;5089446;28;20028;-94
2022/08/06 13:10:38;;;;;;;3.22;1.10;;;;;;;;;;5091488;28;20070;-94
2022/08/06 13:13:10;;;;;;;3.78;1.60;;;;;;;;;;5089138;28;20040;-94
2022/08/06 13:15:36;;;;;;;5.78;1.70;;;;;;;;;;5082950;28;20020;-95
2022/08/06 13:18:11;;;;;;;3.25;1.27;;;;;;;;;;5092016;28;20028;-94
2022/08/06 13:20:43;;;;;;;3.25;1.70;;;;;;;;;;5089112;28;20024;-94
2022/08/06 13:23:10;;;;;;;3.33;1.63;;;32.00;41.10;;;;;;5089447;28;20034;-93
2022/08/06 13:25:40;;;;;;;;;;;31.80;41.20;;;;;;5091693;28;20546;-93
2022/08/06 13:28:24;;;;;;;2.22;1.23;;;31.80;41.20;;;;;;5091049;28;19911;-95
2022/08/06 13:30:51;;;;;;;2.58;2.00;;;;;;;;;;5092488;28;20024;-95
2022/08/06 13:33:17;;;;;;;2.08;1.50;;;;;;;;;;5092245;28;20557;-94
2022/08/06 13:35:44;;;;;;;2.85;1.38;;;31.70;41.50;;;;;;5092166;28;20028;-95
2022/08/06 13:38:11;;;;;;;5.43;1.40;;;;;;;;;;5092371;28;20016;-93
2022/08/06 13:40:37;;;;;;;2.33;1.15;;;;;;;;;;5092617;28;20027;-95
2022/08/06 13:43:03;;;;;;;2.83;1.45;;;;;;;;;;5077357;28;20036;-94
2022/08/06 13:45:29;;;;;;;1.70;1.50;;;31.80;41.60;;;;;;5090084;28;20020;-95
2022/08/06 13:48:06;;;;;;;4.07;1.40;;;31.40;41.10;;;;;;5076075;28;20024;-93
2022/08/06 13:50:33;;;;;;;2.10;1.00;;;31.50;41.60;;;;;;5088538;28;20041;-93
2022/08/06 13:52:59;;;;;;;;;;;31.50;42.40;;;;;;5095113;28;20127;-94
2022/08/06 13:55:25;;;;;;;2.10;1.70;;;;;;;;;;5094728;28;19992;-95
2022/08/06 13:57:52;;;;;;;2.85;1.30;;;31.60;41.60;;;;;;5096286;28;20043;-94
2022/08/06 14:00:18;;;;;;;3.65;2.55;;;31.70;41.80;;;;;;5090093;28;20033;-93
2022/08/06 14:02:44;;;;;;;2.30;1.55;;;;;;;;;;5086153;28;20021;-94
2022/08/06 14:05:10;;;;;;;1.90;1.23;;;;;;;;;;5093505;28;20028;-94
2022/08/06 14:07:36;;;;;;;4.53;1.50;;;;;;;;;;5083825;28;20020;-95
2022/08/06 14:10:02;;;;;;;2.75;1.50;;;;;;;;;;5092766;28;20032;-94
2022/08/06 14:12:28;;;;;;;4.83;1.30;;;;;;;;;;5094537;28;20057;-95
2022/08/06 14:14:54;;;;;;;8.45;1.58;;;;;;;;;;5095348;28;20254;-94